sensor_id;sensor_type;location;lat;lon;timestamp;P1;durP1;ratioP1;P2;durP2;ratioP2
6723;SDS011;3399;52.530;13.304;2022-11-09T00:01:34;2.57;;;2.17;;
6723;SDS011;3399;52.530;13.304;2022-11-09T00:04:01;2.47;;;2.23;;
6723;SDS011;3399;52.530;13.304;2022-11-09T00:06:28;2.20;;;2.00;;
6723;SDS011;3399;52.530;13.304;2022-11-09T00:08:53;3.63;;;2.63;;
6723;SDS011;3399;52.530;13.304;2022-11-09T00:11:19;3.17;;;2.27;;
6723;SDS011;3399;52.530;13.304;2022-11-09T00:13:45;2.70;;;2.20;;
6723;SDS011;3399;52.530;13.304;2022-11-09T00:16:12;2.73;;;2.37;;
6723;SDS011;3399;52.530;13.304;2022-11-09T00:18:42;4.23;;;2.87;;
6723;SDS011;3399;52.530;13.304;2022-11-09T00:21:12;2.43;;;2.10;;
6723;SDS011;3399;52.530;13.304;2022-11-09T00:23:38;2.77;;;2.37;;
6723;SDS011;3399;52.530;13.304;2022-11-09T00:26:05;2.47;;;2.03;;
6723;SDS011;3399;52.530;13.304;2022-11-09T00:28:32;2.30;;;2.07;;
6723;SDS011;3399;52.530;13.304;2022-11-09T00:31:17;3.93;;;2.60;;
6723;SDS011;3399;52.530;13.304;2022-11-09T00:33:51;1.87;;;1.77;;
6723;SDS011;3399;52.530;13.304;2022-11-09T00:36:18;3.33;;;1.70;;
6723;SDS011;3399;52.530;13.304;2022-11-09T00:38:47;2.20;;;2.00;;
6723;SDS011;3399;52.530;13.304;2022-11-09T00:41:14;3.40;;;2.10;;
6723;SDS011;3399;52.530;13.304;2022-11-09T00:43:39;2.40;;;2.20;;
6723;SDS011;3399;52.530;13.304;2022-11-09T00:46:05;2.30;;;2.00;;
6723;SDS011;3399;52.530;13.304;2022-11-09T00:48:31;2.97;;;2.43;;
6723;SDS011;3399;52.530;13.304;2022-11-09T00:50:57;2.00;;;1.90;;
6723;SDS011;3399;52.530;13.304;2022-11-09T00:53:23;3.27;;;2.57;;
6723;SDS011;3399;52.530;13.304;2022-11-09T00:55:53;3.77;;;2.13;;
6723;SDS011;3399;52.530;13.304;2022-11-09T00:58:21;1.63;;;1.53;;
6723;SDS011;3399;52.530;13.304;2022-11-09T01:00:47;3.17;;;2.10;;
6723;SDS011;3399;52.530;13.304;2022-11-09T01:03:12;2.53;;;2.20;;
6723;SDS011;3399;52.530;13.304;2022-11-09T01:05:38;3.13;;;2.20;;
6723;SDS011;3399;52.530;13.304;2022-11-09T01:08:04;5.63;;;2.20;;
6723;SDS011;3399;52.530;13.304;2022-11-09T01:10:30;2.43;;;2.17;;
6723;SDS011;3399;52.530;13.304;2022-11-09T01:12:55;3.00;;;2.17;;
6723;SDS011;3399;52.530;13.304;2022-11-09T01:15:21;3.93;;;2.43;;
6723;SDS011;3399;52.530;13.304;2022-11-09T01:17:46;3.57;;;2.10;;
6723;SDS011;3399;52.530;13.304;2022-11-09T01:20:13;2.67;;;2.27;;
6723;SDS011;3399;52.530;13.304;2022-11-09T01:22:39;2.20;;;2.00;;
6723;SDS011;3399;52.530;13.304;2022-11-09T01:25:04;3.27;;;2.30;;
6723;SDS011;3399;52.530;13.304;2022-11-09T01:27:30;2.07;;;1.97;;
6723;SDS011;3399;52.530;13.304;2022-11-09T01:29:56;3.70;;;2.33;;
6723;SDS011;3399;52.530;13.304;2022-11-09T01:32:22;3.67;;;2.27;;
6723;SDS011;3399;52.530;13.304;2022-11-09T01:34:47;2.30;;;2.10;;
6723;SDS011;3399;52.530;13.304;2022-11-09T01:37:13;2.57;;;2.13;;
6723;SDS011;3399;52.530;13.304;2022-11-09T01:39:38;2.17;;;1.87;;
6723;SDS011;3399;52.530;13.304;2022-11-09T01:42:04;1.83;;;1.73;;
6723;SDS011;3399;52.530;13.304;2022-11-09T01:44:29;2.23;;;2.07;;
6723;SDS011;3399;52.530;13.304;2022-11-09T01:46:59;2.83;;;2.53;;
6723;SDS011;3399;52.530;13.304;2022-11-09T01:52:03;3.67;;;2.13;;
6723;SDS011;3399;52.530;13.304;2022-11-09T01:54:37;2.77;;;2.27;;
6723;SDS011;3399;52.530;13.304;2022-11-09T01:57:08;3.97;;;2.20;;
6723;SDS011;3399;52.530;13.304;2022-11-09T01:59:37;2.67;;;2.30;;
6723;SDS011;3399;52.530;13.304;2022-11-09T02:02:06;2.33;;;1.80;;
6723;SDS011;3399;52.530;13.304;2022-11-09T02:04:35;2.30;;;2.00;;
6723;SDS011;3399;52.530;13.304;2022-11-09T02:07:04;3.27;;;1.80;;
6723;SDS011;3399;52.530;13.304;2022-11-09T02:09:48;4.73;;;2.20;;
6723;SDS011;3399;52.530;13.304;2022-11-09T02:12:18;2.23;;;2.07;;
6723;SDS011;3399;52.530;13.304;2022-11-09T02:14:46;2.60;;;2.30;;
6723;SDS011;3399;52.530;13.304;2022-11-09T02:17:14;2.30;;;2.10;;
6723;SDS011;3399;52.530;13.304;2022-11-09T02:19:41;2.63;;;2.13;;
6723;SDS011;3399;52.530;13.304;2022-11-09T02:22:06;2.53;;;2.10;;
6723;SDS011;3399;52.530;13.304;2022-11-09T02:24:32;1.97;;;1.87;;
6723;SDS011;3399;52.530;13.304;2022-11-09T02:26:58;4.57;;;2.20;;
6723;SDS011;3399;52.530;13.304;2022-11-09T02:29:27;3.43;;;2.30;;
6723;SDS011;3399;52.530;13.304;2022-11-09T02:31:58;2.10;;;2.00;;
6723;SDS011;3399;52.530;13.304;2022-11-09T02:34:26;2.80;;;2.30;;
6723;SDS011;3399;52.530;13.304;2022-11-09T02:36:52;5.67;;;2.13;;
6723;SDS011;3399;52.530;13.304;2022-11-09T02:39:18;2.87;;;2.20;;
6723;SDS011;3399;52.530;13.304;2022-11-09T02:41:48;2.63;;;1.60;;
6723;SDS011;3399;52.530;13.304;2022-11-09T02:44:17;2.37;;;2.17;;
6723;SDS011;3399;52.530;13.304;2022-11-09T02:46:43;4.33;;;2.03;;
6723;SDS011;3399;52.530;13.304;2022-11-09T02:49:09;2.13;;;1.93;;
6723;SDS011;3399;52.530;13.304;2022-11-09T02:51:34;3.00;;;2.30;;
6723;SDS011;3399;52.530;13.304;2022-11-09T02:54:00;2.47;;;2.27;;
6723;SDS011;3399;52.530;13.304;2022-11-09T02:56:25;2.47;;;2.27;;
6723;SDS011;3399;52.530;13.304;2022-11-09T02:58:51;2.43;;;2.17;;
6723;SDS011;3399;52.530;13.304;2022-11-09T03:01:17;2.20;;;2.00;;
6723;SDS011;3399;52.530;13.304;2022-11-09T03:03:42;3.07;;;1.97;;
6723;SDS011;3399;52.530;13.304;2022-11-09T03:06:08;3.20;;;1.93;;
6723;SDS011;3399;52.530;13.304;2022-11-09T03:08:33;2.83;;;1.97;;
6723;SDS011;3399;52.530;13.304;2022-11-09T03:10:59;2.07;;;1.87;;
6723;SDS011;3399;52.530;13.304;2022-11-09T03:13:24;3.33;;;2.00;;
6723;SDS011;3399;52.530;13.304;2022-11-09T03:15:50;2.50;;;2.00;;
6723;SDS011;3399;52.530;13.304;2022-11-09T03:18:16;1.93;;;1.83;;
6723;SDS011;3399;52.530;13.304;2022-11-09T03:20:41;3.10;;;2.20;;
6723;SDS011;3399;52.530;13.304;2022-11-09T03:23:07;2.30;;;2.10;;
6723;SDS011;3399;52.530;13.304;2022-11-09T03:25:32;2.50;;;2.30;;
6723;SDS011;3399;52.530;13.304;2022-11-09T03:27:58;2.63;;;2.40;;
6723;SDS011;3399;52.530;13.304;2022-11-09T03:30:25;2.90;;;1.97;;
6723;SDS011;3399;52.530;13.304;2022-11-09T03:33:01;2.10;;;2.00;;
6723;SDS011;3399;52.530;13.304;2022-11-09T03:35:28;3.47;;;2.50;;
6723;SDS011;3399;52.530;13.304;2022-11-09T03:37:54;2.13;;;1.93;;
6723;SDS011;3399;52.530;13.304;2022-11-09T03:40:19;2.10;;;1.90;;
6723;SDS011;3399;52.530;13.304;2022-11-09T03:42:46;4.97;;;2.27;;
6723;SDS011;3399;52.530;13.304;2022-11-09T03:45:13;2.90;;;2.60;;
6723;SDS011;3399;52.530;13.304;2022-11-09T03:47:40;5.00;;;2.87;;
6723;SDS011;3399;52.530;13.304;2022-11-09T03:50:10;3.23;;;2.10;;
6723;SDS011;3399;52.530;13.304;2022-11-09T03:52:37;2.90;;;2.40;;
6723;SDS011;3399;52.530;13.304;2022-11-09T03:55:03;3.43;;;2.43;;
6723;SDS011;3399;52.530;13.304;2022-11-09T03:57:30;2.20;;;1.83;;
6723;SDS011;3399;52.530;13.304;2022-11-09T03:59:56;2.93;;;2.43;;
6723;SDS011;3399;52.530;13.304;2022-11-09T04:02:21;3.00;;;2.40;;
6723;SDS011;3399;52.530;13.304;2022-11-09T04:04:47;2.03;;;1.93;;
6723;SDS011;3399;52.530;13.304;2022-11-09T04:07:12;2.40;;;2.13;;
6723;SDS011;3399;52.530;13.304;2022-11-09T04:09:39;3.00;;;2.17;;
6723;SDS011;3399;52.530;13.304;2022-11-09T04:12:04;2.37;;;2.17;;
6723;SDS011;3399;52.530;13.304;2022-11-09T04:14:30;2.40;;;2.10;;
6723;SDS011;3399;52.530;13.304;2022-11-09T04:16:55;3.60;;;2.07;;
6723;SDS011;3399;52.530;13.304;2022-11-09T04:19:21;3.17;;;2.40;;
6723;SDS011;3399;52.530;13.304;2022-11-09T04:21:47;2.23;;;2.10;;
6723;SDS011;3399;52.530;13.304;2022-11-09T04:24:12;1.80;;;1.70;;
6723;SDS011;3399;52.530;13.304;2022-11-09T04:26:38;2.27;;;2.07;;
6723;SDS011;3399;52.530;13.304;2022-11-09T04:29:03;2.43;;;2.23;;
6723;SDS011;3399;52.530;13.304;2022-11-09T04:31:29;3.67;;;2.13;;
6723;SDS011;3399;52.530;13.304;2022-11-09T04:33:54;4.97;;;2.50;;
6723;SDS011;3399;52.530;13.304;2022-11-09T04:36:20;2.80;;;1.90;;
6723;SDS011;3399;52.530;13.304;2022-11-09T04:38:46;1.93;;;1.80;;
6723;SDS011;3399;52.530;13.304;2022-11-09T04:41:11;2.63;;;2.43;;
6723;SDS011;3399;52.530;13.304;2022-11-09T04:43:37;3.00;;;2.03;;
6723;SDS011;3399;52.530;13.304;2022-11-09T04:46:02;2.47;;;2.27;;
6723;SDS011;3399;52.530;13.304;2022-11-09T04:48:29;2.23;;;2.13;;
6723;SDS011;3399;52.530;13.304;2022-11-09T04:50:58;2.20;;;2.00;;
6723;SDS011;3399;52.530;13.304;2022-11-09T04:53:25;2.63;;;2.43;;
6723;SDS011;3399;52.530;13.304;2022-11-09T04:55:51;2.50;;;2.30;;
6723;SDS011;3399;52.530;13.304;2022-11-09T04:58:16;2.43;;;2.23;;
6723;SDS011;3399;52.530;13.304;2022-11-09T05:00:42;2.87;;;2.50;;
6723;SDS011;3399;52.530;13.304;2022-11-09T05:03:07;3.27;;;2.10;;
6723;SDS011;3399;52.530;13.304;2022-11-09T05:05:33;3.53;;;2.70;;
6723;SDS011;3399;52.530;13.304;2022-11-09T05:08:00;2.80;;;2.10;;
6723;SDS011;3399;52.530;13.304;2022-11-09T05:10:26;3.90;;;1.97;;
6723;SDS011;3399;52.530;13.304;2022-11-09T05:12:58;2.77;;;1.80;;
6723;SDS011;3399;52.530;13.304;2022-11-09T05:15:24;2.93;;;2.30;;
6723;SDS011;3399;52.530;13.304;2022-11-09T05:17:49;2.97;;;2.40;;
6723;SDS011;3399;52.530;13.304;2022-11-09T05:20:15;4.87;;;2.30;;
6723;SDS011;3399;52.530;13.304;2022-11-09T05:22:40;5.67;;;2.63;;
6723;SDS011;3399;52.530;13.304;2022-11-09T05:25:24;2.47;;;2.27;;
6723;SDS011;3399;52.530;13.304;2022-11-09T05:27:50;3.53;;;2.67;;
6723;SDS011;3399;52.530;13.304;2022-11-09T05:30:16;3.40;;;2.30;;
6723;SDS011;3399;52.530;13.304;2022-11-09T05:32:41;2.77;;;2.43;;
6723;SDS011;3399;52.530;13.304;2022-11-09T05:35:07;3.33;;;2.33;;
6723;SDS011;3399;52.530;13.304;2022-11-09T05:37:33;2.97;;;2.43;;
6723;SDS011;3399;52.530;13.304;2022-11-09T05:39:58;3.70;;;2.23;;
6723;SDS011;3399;52.530;13.304;2022-11-09T05:42:24;3.47;;;2.37;;
6723;SDS011;3399;52.530;13.304;2022-11-09T05:44:49;3.13;;;2.53;;
6723;SDS011;3399;52.530;13.304;2022-11-09T05:47:15;4.90;;;3.00;;
6723;SDS011;3399;52.530;13.304;2022-11-09T05:49:40;3.37;;;2.70;;
6723;SDS011;3399;52.530;13.304;2022-11-09T05:52:06;3.00;;;2.70;;
6723;SDS011;3399;52.530;13.304;2022-11-09T05:54:32;4.37;;;2.67;;
6723;SDS011;3399;52.530;13.304;2022-11-09T05:56:57;3.73;;;2.23;;
6723;SDS011;3399;52.530;13.304;2022-11-09T05:59:24;3.53;;;2.30;;
6723;SDS011;3399;52.530;13.304;2022-11-09T06:01:49;7.67;;;3.23;;
6723;SDS011;3399;52.530;13.304;2022-11-09T06:04:15;4.00;;;2.30;;
6723;SDS011;3399;52.530;13.304;2022-11-09T06:06:41;2.40;;;2.17;;
6723;SDS011;3399;52.530;13.304;2022-11-09T06:09:07;3.27;;;2.77;;
6723;SDS011;3399;52.530;13.304;2022-11-09T06:11:32;2.87;;;2.67;;
6723;SDS011;3399;52.530;13.304;2022-11-09T06:13:58;5.50;;;2.60;;
6723;SDS011;3399;52.530;13.304;2022-11-09T06:16:23;3.67;;;2.50;;
6723;SDS011;3399;52.530;13.304;2022-11-09T06:18:49;3.03;;;2.73;;
6723;SDS011;3399;52.530;13.304;2022-11-09T06:21:14;5.70;;;2.70;;
6723;SDS011;3399;52.530;13.304;2022-11-09T06:23:40;7.63;;;3.10;;
6723;SDS011;3399;52.530;13.304;2022-11-09T06:26:06;3.10;;;2.40;;
6723;SDS011;3399;52.530;13.304;2022-11-09T06:28:34;2.97;;;2.67;;
6723;SDS011;3399;52.530;13.304;2022-11-09T06:31:01;2.93;;;2.73;;
6723;SDS011;3399;52.530;13.304;2022-11-09T06:33:31;4.20;;;2.73;;
6723;SDS011;3399;52.530;13.304;2022-11-09T06:35:58;3.47;;;2.30;;
6723;SDS011;3399;52.530;13.304;2022-11-09T06:38:24;3.27;;;2.73;;
6723;SDS011;3399;52.530;13.304;2022-11-09T06:40:53;4.13;;;2.50;;
6723;SDS011;3399;52.530;13.304;2022-11-09T06:43:20;4.10;;;3.70;;
6723;SDS011;3399;52.530;13.304;2022-11-09T06:45:45;2.80;;;2.57;;
6723;SDS011;3399;52.530;13.304;2022-11-09T06:48:11;4.13;;;2.43;;
6723;SDS011;3399;52.530;13.304;2022-11-09T06:50:37;4.60;;;2.97;;
6723;SDS011;3399;52.530;13.304;2022-11-09T06:53:03;4.07;;;2.57;;
6723;SDS011;3399;52.530;13.304;2022-11-09T06:55:31;6.97;;;3.40;;
6723;SDS011;3399;52.530;13.304;2022-11-09T06:57:58;5.27;;;4.00;;
6723;SDS011;3399;52.530;13.304;2022-11-09T07:00:24;3.80;;;2.93;;
6723;SDS011;3399;52.530;13.304;2022-11-09T07:02:51;9.00;;;4.40;;
6723;SDS011;3399;52.530;13.304;2022-11-09T07:05:17;3.10;;;2.80;;
6723;SDS011;3399;52.530;13.304;2022-11-09T07:07:43;5.80;;;3.30;;
6723;SDS011;3399;52.530;13.304;2022-11-09T07:10:09;4.57;;;3.10;;
6723;SDS011;3399;52.530;13.304;2022-11-09T07:12:35;2.53;;;2.33;;
6723;SDS011;3399;52.530;13.304;2022-11-09T07:15:01;4.27;;;3.37;;
6723;SDS011;3399;52.530;13.304;2022-11-09T07:17:30;3.60;;;2.83;;
6723;SDS011;3399;52.530;13.304;2022-11-09T07:19:56;4.10;;;3.70;;
6723;SDS011;3399;52.530;13.304;2022-11-09T07:22:22;5.33;;;2.97;;
6723;SDS011;3399;52.530;13.304;2022-11-09T07:24:47;6.27;;;4.30;;
6723;SDS011;3399;52.530;13.304;2022-11-09T07:27:13;5.33;;;3.57;;
6723;SDS011;3399;52.530;13.304;2022-11-09T07:29:38;5.30;;;3.10;;
6723;SDS011;3399;52.530;13.304;2022-11-09T07:32:04;4.13;;;2.83;;
6723;SDS011;3399;52.530;13.304;2022-11-09T07:34:29;2.93;;;2.67;;
6723;SDS011;3399;52.530;13.304;2022-11-09T07:36:55;3.90;;;3.33;;
6723;SDS011;3399;52.530;13.304;2022-11-09T07:39:20;3.87;;;3.47;;
6723;SDS011;3399;52.530;13.304;2022-11-09T07:41:46;3.60;;;3.33;;
6723;SDS011;3399;52.530;13.304;2022-11-09T07:44:13;5.03;;;3.30;;
6723;SDS011;3399;52.530;13.304;2022-11-09T07:46:42;6.13;;;3.93;;
6723;SDS011;3399;52.530;13.304;2022-11-09T07:49:11;5.13;;;2.93;;
6723;SDS011;3399;52.530;13.304;2022-11-09T07:51:38;4.27;;;3.70;;
6723;SDS011;3399;52.530;13.304;2022-11-09T07:54:03;5.03;;;3.00;;
6723;SDS011;3399;52.530;13.304;2022-11-09T07:56:29;3.67;;;3.37;;
6723;SDS011;3399;52.530;13.304;2022-11-09T07:58:54;4.57;;;3.80;;
6723;SDS011;3399;52.530;13.304;2022-11-09T08:01:21;5.10;;;3.50;;
6723;SDS011;3399;52.530;13.304;2022-11-09T08:03:46;4.50;;;3.20;;
6723;SDS011;3399;52.530;13.304;2022-11-09T08:06:12;5.67;;;3.30;;
6723;SDS011;3399;52.530;13.304;2022-11-09T08:08:37;3.17;;;2.80;;
6723;SDS011;3399;52.530;13.304;2022-11-09T08:11:03;3.00;;;2.77;;
6723;SDS011;3399;52.530;13.304;2022-11-09T08:13:28;3.33;;;3.03;;
6723;SDS011;3399;52.530;13.304;2022-11-09T08:15:54;6.07;;;3.20;;
6723;SDS011;3399;52.530;13.304;2022-11-09T08:18:20;5.60;;;3.90;;
6723;SDS011;3399;52.530;13.304;2022-11-09T08:20:46;4.57;;;3.93;;
6723;SDS011;3399;52.530;13.304;2022-11-09T08:23:13;6.37;;;3.10;;
6723;SDS011;3399;52.530;13.304;2022-11-09T08:25:40;6.10;;;4.37;;
6723;SDS011;3399;52.530;13.304;2022-11-09T08:28:06;4.90;;;3.23;;
6723;SDS011;3399;52.530;13.304;2022-11-09T08:30:32;4.57;;;4.03;;
6723;SDS011;3399;52.530;13.304;2022-11-09T08:32:58;7.80;;;3.40;;
6723;SDS011;3399;52.530;13.304;2022-11-09T08:35:25;3.20;;;2.97;;
6723;SDS011;3399;52.530;13.304;2022-11-09T08:37:51;4.73;;;3.17;;
6723;SDS011;3399;52.530;13.304;2022-11-09T08:40:19;4.90;;;3.57;;
6723;SDS011;3399;52.530;13.304;2022-11-09T08:42:46;3.20;;;2.90;;
6723;SDS011;3399;52.530;13.304;2022-11-09T08:45:12;5.57;;;3.70;;
6723;SDS011;3399;52.530;13.304;2022-11-09T08:47:38;4.07;;;3.07;;
6723;SDS011;3399;52.530;13.304;2022-11-09T08:50:05;3.87;;;3.17;;
6723;SDS011;3399;52.530;13.304;2022-11-09T08:52:31;7.43;;;3.17;;
6723;SDS011;3399;52.530;13.304;2022-11-09T08:54:57;5.87;;;3.90;;
6723;SDS011;3399;52.530;13.304;2022-11-09T08:57:23;5.80;;;3.33;;
6723;SDS011;3399;52.530;13.304;2022-11-09T08:59:48;7.87;;;3.63;;
6723;SDS011;3399;52.530;13.304;2022-11-09T09:02:14;3.27;;;3.00;;
6723;SDS011;3399;52.530;13.304;2022-11-09T09:04:40;4.20;;;3.33;;
6723;SDS011;3399;52.530;13.304;2022-11-09T09:07:06;6.07;;;4.17;;
6723;SDS011;3399;52.530;13.304;2022-11-09T09:09:32;3.87;;;3.20;;
6723;SDS011;3399;52.530;13.304;2022-11-09T09:11:58;3.70;;;3.27;;
6723;SDS011;3399;52.530;13.304;2022-11-09T09:14:24;3.50;;;3.20;;
6723;SDS011;3399;52.530;13.304;2022-11-09T09:16:50;6.83;;;4.10;;
6723;SDS011;3399;52.530;13.304;2022-11-09T09:19:16;3.53;;;3.23;;
6723;SDS011;3399;52.530;13.304;2022-11-09T09:21:41;6.17;;;3.67;;
6723;SDS011;3399;52.530;13.304;2022-11-09T09:24:07;9.77;;;3.90;;
6723;SDS011;3399;52.530;13.304;2022-11-09T09:26:33;6.07;;;3.43;;
6723;SDS011;3399;52.530;13.304;2022-11-09T09:28:59;4.53;;;3.67;;
6723;SDS011;3399;52.530;13.304;2022-11-09T09:31:24;5.93;;;4.07;;
6723;SDS011;3399;52.530;13.304;2022-11-09T09:33:50;3.97;;;3.43;;
6723;SDS011;3399;52.530;13.304;2022-11-09T09:36:16;4.93;;;4.23;;
6723;SDS011;3399;52.530;13.304;2022-11-09T09:38:43;6.60;;;3.57;;
6723;SDS011;3399;52.530;13.304;2022-11-09T09:41:14;7.33;;;3.23;;
6723;SDS011;3399;52.530;13.304;2022-11-09T09:43:52;3.83;;;3.27;;
6723;SDS011;3399;52.530;13.304;2022-11-09T09:46:36;3.87;;;3.33;;
6723;SDS011;3399;52.530;13.304;2022-11-09T09:49:08;21.03;;;6.60;;
6723;SDS011;3399;52.530;13.304;2022-11-09T09:51:40;8.43;;;4.57;;
6723;SDS011;3399;52.530;13.304;2022-11-09T09:54:23;4.50;;;4.10;;
6723;SDS011;3399;52.530;13.304;2022-11-09T09:56:52;4.83;;;4.07;;
6723;SDS011;3399;52.530;13.304;2022-11-09T09:59:38;6.47;;;3.97;;
6723;SDS011;3399;52.530;13.304;2022-11-09T10:02:27;6.17;;;3.80;;
6723;SDS011;3399;52.530;13.304;2022-11-09T10:04:58;4.10;;;3.37;;
6723;SDS011;3399;52.530;13.304;2022-11-09T10:12:33;3.47;;;3.03;;
6723;SDS011;3399;52.530;13.304;2022-11-09T10:15:30;4.57;;;3.80;;
6723;SDS011;3399;52.530;13.304;2022-11-09T10:18:08;3.97;;;3.60;;
6723;SDS011;3399;52.530;13.304;2022-11-09T10:29:11;3.73;;;3.43;;
6723;SDS011;3399;52.530;13.304;2022-11-09T10:31:53;6.67;;;5.17;;
6723;SDS011;3399;52.530;13.304;2022-11-09T10:34:26;5.23;;;3.83;;
6723;SDS011;3399;52.530;13.304;2022-11-09T10:36:58;4.50;;;3.37;;
6723;SDS011;3399;52.530;13.304;2022-11-09T10:40:12;3.67;;;3.33;;
6723;SDS011;3399;52.530;13.304;2022-11-09T10:42:43;4.37;;;3.73;;
6723;SDS011;3399;52.530;13.304;2022-11-09T10:45:24;4.87;;;3.33;;
6723;SDS011;3399;52.530;13.304;2022-11-09T10:47:51;5.67;;;3.97;;
6723;SDS011;3399;52.530;13.304;2022-11-09T10:53:18;4.73;;;4.33;;
6723;SDS011;3399;52.530;13.304;2022-11-09T10:58:27;4.57;;;3.93;;
6723;SDS011;3399;52.530;13.304;2022-11-09T11:01:12;3.80;;;3.37;;
6723;SDS011;3399;52.530;13.304;2022-11-09T11:03:39;3.60;;;3.30;;
6723;SDS011;3399;52.530;13.304;2022-11-09T11:08:42;3.57;;;3.27;;
6723;SDS011;3399;52.530;13.304;2022-11-09T11:11:16;2.73;;;2.53;;
6723;SDS011;3399;52.530;13.304;2022-11-09T11:13:47;4.50;;;2.97;;
6723;SDS011;3399;52.530;13.304;2022-11-09T11:16:35;3.33;;;3.03;;
6723;SDS011;3399;52.530;13.304;2022-11-09T11:19:00;5.87;;;2.90;;
6723;SDS011;3399;52.530;13.304;2022-11-09T11:21:26;5.13;;;3.00;;
6723;SDS011;3399;52.530;13.304;2022-11-09T11:26:45;3.07;;;2.37;;
6723;SDS011;3399;52.530;13.304;2022-11-09T11:31:55;2.30;;;2.10;;
6723;SDS011;3399;52.530;13.304;2022-11-09T11:34:21;2.20;;;2.00;;
6723;SDS011;3399;52.530;13.304;2022-11-09T11:36:54;3.20;;;2.23;;
6723;SDS011;3399;52.530;13.304;2022-11-09T11:39:49;3.40;;;2.60;;
6723;SDS011;3399;52.530;13.304;2022-11-09T11:48:10;3.27;;;2.30;;
6723;SDS011;3399;52.530;13.304;2022-11-09T11:51:00;2.53;;;2.33;;
6723;SDS011;3399;52.530;13.304;2022-11-09T11:53:40;2.23;;;2.00;;
6723;SDS011;3399;52.530;13.304;2022-11-09T11:56:28;3.63;;;2.23;;
6723;SDS011;3399;52.530;13.304;2022-11-09T11:59:25;3.23;;;2.07;;
6723;SDS011;3399;52.530;13.304;2022-11-09T12:08:15;3.07;;;2.10;;
6723;SDS011;3399;52.530;13.304;2022-11-09T12:11:05;3.00;;;2.30;;
6723;SDS011;3399;52.530;13.304;2022-11-09T12:14:00;3.00;;;2.73;;
6723;SDS011;3399;52.530;13.304;2022-11-09T12:16:50;3.60;;;1.97;;
6723;SDS011;3399;52.530;13.304;2022-11-09T12:22:31;2.27;;;2.03;;
6723;SDS011;3399;52.530;13.304;2022-11-09T12:25:16;2.90;;;1.80;;
6723;SDS011;3399;52.530;13.304;2022-11-09T12:27:50;1.93;;;1.60;;
6723;SDS011;3399;52.530;13.304;2022-11-09T12:31:21;2.03;;;1.87;;
6723;SDS011;3399;52.530;13.304;2022-11-09T12:33:44;6.27;;;2.00;;
6723;SDS011;3399;52.530;13.304;2022-11-09T12:36:21;2.20;;;2.00;;
6723;SDS011;3399;52.530;13.304;2022-11-09T12:41:23;2.67;;;1.50;;
6723;SDS011;3399;52.530;13.304;2022-11-09T12:43:55;5.93;;;2.03;;
6723;SDS011;3399;52.530;13.304;2022-11-09T12:46:28;3.33;;;1.77;;
6723;SDS011;3399;52.530;13.304;2022-11-09T12:48:59;2.53;;;1.70;;
6723;SDS011;3399;52.530;13.304;2022-11-09T12:51:28;3.33;;;2.20;;
6723;SDS011;3399;52.530;13.304;2022-11-09T12:53:54;2.10;;;1.80;;
6723;SDS011;3399;52.530;13.304;2022-11-09T12:56:23;1.93;;;1.83;;
6723;SDS011;3399;52.530;13.304;2022-11-09T13:01:44;1.73;;;1.63;;
6723;SDS011;3399;52.530;13.304;2022-11-09T13:04:15;1.90;;;1.73;;
6723;SDS011;3399;52.530;13.304;2022-11-09T13:06:46;2.50;;;1.87;;
6723;SDS011;3399;52.530;13.304;2022-11-09T13:09:28;3.87;;;1.50;;
6723;SDS011;3399;52.530;13.304;2022-11-09T13:11:54;1.93;;;1.70;;
6723;SDS011;3399;52.530;13.304;2022-11-09T13:16:49;1.97;;;1.67;;
6723;SDS011;3399;52.530;13.304;2022-11-09T13:22:02;1.87;;;1.77;;
6723;SDS011;3399;52.530;13.304;2022-11-09T13:24:57;2.57;;;2.27;;
6723;SDS011;3399;52.530;13.304;2022-11-09T13:27:36;2.70;;;2.37;;
6723;SDS011;3399;52.530;13.304;2022-11-09T13:30:12;2.10;;;1.63;;
6723;SDS011;3399;52.530;13.304;2022-11-09T13:38:16;2.23;;;2.03;;
6723;SDS011;3399;52.530;13.304;2022-11-09T13:40:55;3.27;;;2.90;;
6723;SDS011;3399;52.530;13.304;2022-11-09T13:43:32;2.10;;;1.90;;
6723;SDS011;3399;52.530;13.304;2022-11-09T13:46:22;3.80;;;2.20;;
6723;SDS011;3399;52.530;13.304;2022-11-09T13:48:50;2.30;;;1.90;;
6723;SDS011;3399;52.530;13.304;2022-11-09T13:51:21;2.10;;;1.90;;
6723;SDS011;3399;52.530;13.304;2022-11-09T13:56:30;6.23;;;2.30;;
6723;SDS011;3399;52.530;13.304;2022-11-09T13:59:02;4.03;;;2.57;;
6723;SDS011;3399;52.530;13.304;2022-11-09T14:04:27;3.83;;;3.40;;
6723;SDS011;3399;52.530;13.304;2022-11-09T14:07:18;2.90;;;2.60;;
6723;SDS011;3399;52.530;13.304;2022-11-09T14:24:00;1.90;;;1.80;;
6723;SDS011;3399;52.530;13.304;2022-11-09T14:26:57;2.43;;;2.23;;
6723;SDS011;3399;52.530;13.304;2022-11-09T14:29:24;4.20;;;3.27;;
6723;SDS011;3399;52.530;13.304;2022-11-09T14:31:50;2.47;;;2.27;;
6723;SDS011;3399;52.530;13.304;2022-11-09T14:34:15;2.90;;;2.60;;
6723;SDS011;3399;52.530;13.304;2022-11-09T14:36:42;3.13;;;1.77;;
6723;SDS011;3399;52.530;13.304;2022-11-09T14:39:28;2.60;;;2.40;;
6723;SDS011;3399;52.530;13.304;2022-11-09T14:41:57;3.77;;;2.80;;
6723;SDS011;3399;52.530;13.304;2022-11-09T14:44:31;3.37;;;2.30;;
6723;SDS011;3399;52.530;13.304;2022-11-09T14:47:03;2.47;;;2.20;;
6723;SDS011;3399;52.530;13.304;2022-11-09T14:49:29;2.57;;;2.07;;
6723;SDS011;3399;52.530;13.304;2022-11-09T14:51:55;2.97;;;2.67;;
6723;SDS011;3399;52.530;13.304;2022-11-09T14:54:22;2.50;;;2.27;;
6723;SDS011;3399;52.530;13.304;2022-11-09T14:56:49;2.17;;;1.90;;
6723;SDS011;3399;52.530;13.304;2022-11-09T14:59:19;2.63;;;2.03;;
6723;SDS011;3399;52.530;13.304;2022-11-09T15:07:26;3.07;;;2.13;;
6723;SDS011;3399;52.530;13.304;2022-11-09T15:09:55;4.33;;;2.60;;
6723;SDS011;3399;52.530;13.304;2022-11-09T15:12:22;2.47;;;2.10;;
6723;SDS011;3399;52.530;13.304;2022-11-09T15:14:56;3.13;;;2.67;;
6723;SDS011;3399;52.530;13.304;2022-11-09T15:17:32;2.33;;;2.10;;
6723;SDS011;3399;52.530;13.304;2022-11-09T15:20:01;2.80;;;2.60;;
6723;SDS011;3399;52.530;13.304;2022-11-09T15:31:10;2.90;;;2.70;;
6723;SDS011;3399;52.530;13.304;2022-11-09T15:35:47;2.70;;;2.50;;
6723;SDS011;3399;52.530;13.304;2022-11-09T15:38:30;4.30;;;2.20;;
6723;SDS011;3399;52.530;13.304;2022-11-09T15:41:02;3.87;;;3.33;;
6723;SDS011;3399;52.530;13.304;2022-11-09T15:43:33;2.70;;;2.50;;
6723;SDS011;3399;52.530;13.304;2022-11-09T15:45:58;2.57;;;2.37;;
6723;SDS011;3399;52.530;13.304;2022-11-09T15:48:25;4.43;;;3.00;;
6723;SDS011;3399;52.530;13.304;2022-11-09T15:50:50;4.30;;;2.87;;
6723;SDS011;3399;52.530;13.304;2022-11-09T15:53:16;4.83;;;2.97;;
6723;SDS011;3399;52.530;13.304;2022-11-09T15:55:42;3.47;;;3.17;;
6723;SDS011;3399;52.530;13.304;2022-11-09T15:58:10;3.37;;;3.03;;
6723;SDS011;3399;52.530;13.304;2022-11-09T16:00:38;3.87;;;3.47;;
6723;SDS011;3399;52.530;13.304;2022-11-09T16:03:04;4.23;;;2.93;;
6723;SDS011;3399;52.530;13.304;2022-11-09T16:05:29;4.00;;;2.80;;
6723;SDS011;3399;52.530;13.304;2022-11-09T16:07:55;3.67;;;2.97;;
6723;SDS011;3399;52.530;13.304;2022-11-09T16:10:21;5.17;;;3.53;;
6723;SDS011;3399;52.530;13.304;2022-11-09T16:12:54;2.60;;;2.40;;
6723;SDS011;3399;52.530;13.304;2022-11-09T16:15:23;5.03;;;3.63;;
6723;SDS011;3399;52.530;13.304;2022-11-09T16:17:50;3.77;;;3.47;;
6723;SDS011;3399;52.530;13.304;2022-11-09T16:20:16;4.23;;;2.70;;
6723;SDS011;3399;52.530;13.304;2022-11-09T16:22:43;3.73;;;3.30;;
6723;SDS011;3399;52.530;13.304;2022-11-09T16:25:09;4.67;;;2.80;;
6723;SDS011;3399;52.530;13.304;2022-11-09T16:27:35;3.60;;;3.17;;
6723;SDS011;3399;52.530;13.304;2022-11-09T16:30:01;4.00;;;3.33;;
6723;SDS011;3399;52.530;13.304;2022-11-09T16:32:28;3.07;;;2.77;;
6723;SDS011;3399;52.530;13.304;2022-11-09T16:34:54;6.20;;;3.23;;
6723;SDS011;3399;52.530;13.304;2022-11-09T16:37:19;6.57;;;4.20;;
6723;SDS011;3399;52.530;13.304;2022-11-09T16:39:46;5.17;;;4.30;;
6723;SDS011;3399;52.530;13.304;2022-11-09T16:42:12;5.17;;;3.67;;
6723;SDS011;3399;52.530;13.304;2022-11-09T16:44:40;3.10;;;2.77;;
6723;SDS011;3399;52.530;13.304;2022-11-09T16:47:08;3.33;;;3.07;;
6723;SDS011;3399;52.530;13.304;2022-11-09T16:49:36;4.10;;;3.70;;